createdAt,value
2022-11-07T00:02:54.919Z,15
2022-11-07T00:07:54.903Z,14.5
2022-11-07T00:12:54.924Z,14
2022-11-07T00:17:54.856Z,13
2022-11-07T00:22:54.839Z,13
2022-11-07T00:27:54.836Z,12
2022-11-07T00:32:54.800Z,11.5
2022-11-07T00:37:54.783Z,11
2022-11-07T00:42:54.750Z,10.5
2022-11-07T00:47:54.738Z,10.5
2022-11-07T00:52:54.723Z,11.5
2022-11-07T00:57:54.706Z,11.5
2022-11-07T01:02:54.737Z,11
2022-11-07T01:07:54.662Z,11
2022-11-07T01:12:54.641Z,11.5
2022-11-07T01:17:54.644Z,12
2022-11-07T01:22:54.602Z,13
2022-11-07T01:27:54.583Z,13.5
2022-11-07T01:32:54.637Z,13
2022-11-07T01:37:54.558Z,12.5
2022-11-07T01:42:54.548Z,13
2022-11-07T01:47:54.519Z,13
2022-11-07T01:52:54.482Z,13.5
2022-11-07T01:57:54.458Z,13.5
2022-11-07T02:02:54.435Z,13.5
2022-11-07T02:07:54.421Z,14
2022-11-07T02:12:54.399Z,14
2022-11-07T02:17:54.382Z,14.5
2022-11-07T02:22:54.366Z,15
2022-11-07T02:27:54.350Z,16
2022-11-07T02:32:54.337Z,16
2022-11-07T02:37:54.302Z,17
2022-11-07T02:42:54.343Z,17
2022-11-07T02:47:54.310Z,17
2022-11-07T02:52:54.238Z,18
2022-11-07T02:57:54.228Z,19
2022-11-07T03:02:54.202Z,18.5
2022-11-07T03:07:54.188Z,18
2022-11-07T03:12:54.194Z,17.5
2022-11-07T03:17:54.156Z,17
2022-11-07T03:22:54.135Z,17.5
2022-11-07T03:27:54.105Z,18.5
2022-11-07T03:32:54.084Z,18.5
2022-11-07T03:37:54.074Z,19.5
2022-11-07T03:42:54.045Z,18.5
2022-11-07T03:47:54.033Z,19.5
2022-11-07T03:52:54.005Z,18
2022-11-07T03:57:53.989Z,17
2022-11-07T04:02:53.961Z,19
2022-11-07T04:07:53.944Z,20
2022-11-07T04:12:53.933Z,20.5
2022-11-07T04:17:53.965Z,19.5
2022-11-07T04:22:53.964Z,19.5
2022-11-07T04:27:53.873Z,19.5
2022-11-07T04:32:53.852Z,19
2022-11-07T04:37:53.822Z,19
2022-11-07T04:42:53.811Z,19
2022-11-07T04:47:53.789Z,18.5
2022-11-07T04:52:53.770Z,19
2022-11-07T04:57:53.757Z,19
2022-11-07T05:02:53.736Z,19
2022-11-07T05:07:53.754Z,18.5
2022-11-07T05:12:53.690Z,19
2022-11-07T05:17:53.668Z,18.5
2022-11-07T05:22:53.652Z,19
2022-11-07T05:27:53.626Z,19.5
2022-11-07T05:32:53.658Z,20
2022-11-07T05:37:53.592Z,19.5
2022-11-07T05:42:53.567Z,18.5
2022-11-07T05:47:53.574Z,18
2022-11-07T05:52:53.578Z,18.5
2022-11-07T05:57:53.563Z,20.5
2022-11-07T06:02:53.515Z,21
2022-11-07T06:07:53.495Z,20.5
2022-11-07T06:12:53.448Z,21
2022-11-07T06:17:53.438Z,20.5
2022-11-07T06:22:53.419Z,20.5
2022-11-07T06:27:53.417Z,21
2022-11-07T06:32:53.369Z,20.5
2022-11-07T06:37:53.354Z,19.5
2022-11-07T06:42:53.354Z,20
2022-11-07T06:47:53.335Z,19
2022-11-07T06:52:53.285Z,20
2022-11-07T06:57:53.290Z,20.5
2022-11-07T07:02:53.258Z,19.5
2022-11-07T07:07:53.236Z,20
2022-11-07T07:12:53.231Z,20
2022-11-07T07:17:53.221Z,20
2022-11-07T07:22:53.217Z,19
2022-11-07T07:27:53.169Z,19
2022-11-07T07:32:53.142Z,17.5
2022-11-07T07:37:53.135Z,16.5
2022-11-07T07:42:53.121Z,16.5
2022-11-07T07:47:53.080Z,15.5
2022-11-07T07:52:53.079Z,15
2022-11-07T07:57:53.040Z,14.5
2022-11-07T08:02:53.071Z,12
2022-11-07T08:07:53.047Z,11.5
2022-11-07T08:12:53.004Z,7.5
2022-11-07T08:17:52.957Z,3
2022-11-07T08:22:52.936Z,2
2022-11-07T08:27:52.911Z,0.5
2022-11-07T08:32:52.898Z,1.5
2022-11-07T08:37:52.925Z,0
2022-11-07T08:47:52.878Z,0
2022-11-07T08:52:52.908Z,0
2022-11-07T08:57:52.874Z,0
2022-11-07T09:02:52.769Z,0
2022-11-07T09:07:52.884Z,0
2022-11-07T09:12:52.732Z,0
2022-11-07T09:17:52.719Z,0
2022-11-07T09:22:52.698Z,0
2022-11-07T09:27:52.666Z,0
2022-11-07T09:32:52.653Z,0
2022-11-07T09:37:52.679Z,0
2022-11-07T09:47:52.722Z,0
2022-11-07T09:52:52.562Z,0
2022-11-07T09:57:52.550Z,0
2022-11-07T10:02:52.528Z,0
2022-11-07T10:07:52.523Z,0
2022-11-07T10:12:52.548Z,0
2022-11-07T10:17:52.461Z,0
2022-11-07T10:22:52.492Z,0
2022-11-07T10:27:52.417Z,0
2022-11-07T10:32:52.388Z,0
2022-11-07T10:37:52.377Z,0
2022-11-07T10:42:52.412Z,0
2022-11-07T10:47:52.340Z,0
2022-11-07T10:52:52.393Z,0
2022-11-07T10:57:52.397Z,0
2022-11-07T11:02:52.267Z,0
2022-11-07T11:07:52.285Z,0
2022-11-07T11:12:52.289Z,0
2022-11-07T11:17:52.209Z,0
2022-11-07T11:22:52.184Z,0
2022-11-07T11:27:52.178Z,0
2022-11-07T11:32:52.155Z,99.5
2022-11-07T11:37:52.134Z,99.5
2022-11-07T11:42:52.096Z,91.5
2022-11-07T11:47:52.077Z,90.5
2022-11-07T11:52:52.063Z,95
2022-11-07T11:57:52.087Z,95
2022-11-07T12:02:52.065Z,99
2022-11-07T12:07:52.046Z,96.5
2022-11-07T12:12:52.047Z,97.5
2022-11-07T12:17:51.963Z,99.5
2022-11-07T12:22:51.931Z,98
2022-11-07T12:27:51.914Z,98
2022-11-07T12:32:52.007Z,99.5
2022-11-07T12:37:51.871Z,100
2022-11-07T12:42:51.884Z,100
2022-11-07T12:47:51.903Z,99.5
2022-11-07T12:52:51.821Z,100
2022-11-07T12:57:51.876Z,100
2022-11-07T13:02:51.847Z,97
2022-11-07T13:07:51.754Z,95
2022-11-07T13:12:51.771Z,96.5
2022-11-07T13:17:51.711Z,97.5
2022-11-07T13:22:51.686Z,97
2022-11-07T13:27:51.731Z,98
2022-11-07T13:32:51.739Z,99
2022-11-07T13:37:51.639Z,99.5
2022-11-07T13:42:51.683Z,100
2022-11-07T13:47:51.574Z,100
2022-11-07T13:52:51.578Z,100
2022-11-07T13:57:51.533Z,100
2022-11-07T14:02:51.521Z,100
2022-11-07T14:07:51.501Z,100
2022-11-07T14:12:51.472Z,100
2022-11-07T14:17:51.461Z,100
2022-11-07T14:22:51.432Z,100
2022-11-07T14:27:51.422Z,100
2022-11-07T14:32:51.386Z,100
2022-11-07T14:37:51.395Z,100
2022-11-07T14:42:51.348Z,100
2022-11-07T14:47:51.323Z,100
2022-11-07T14:52:51.332Z,100
2022-11-07T14:57:51.344Z,100
2022-11-07T15:02:51.270Z,100
2022-11-07T15:07:51.251Z,100
2022-11-07T15:12:51.223Z,100
2022-11-07T15:17:51.252Z,100
2022-11-07T15:22:51.205Z,100
2022-11-07T15:27:51.198Z,100
2022-11-07T15:32:51.282Z,100
2022-11-07T15:37:51.135Z,100
2022-11-07T15:42:51.235Z,100
2022-11-07T15:47:51.248Z,100
2022-11-07T15:52:51.129Z,100
2022-11-07T15:57:51.047Z,100
2022-11-07T16:02:51.045Z,100
2022-11-07T16:07:51.059Z,100
2022-11-07T16:12:51.000Z,100
2022-11-07T16:22:51.020Z,100
2022-11-07T16:27:50.912Z,100
2022-11-07T16:32:50.956Z,100
2022-11-07T16:42:50.847Z,1
2022-11-07T16:47:50.876Z,2.5
2022-11-07T16:52:50.904Z,0
2022-11-07T16:57:50.790Z,1.5
2022-11-07T17:02:50.812Z,2.5
2022-11-07T17:07:50.744Z,2
2022-11-07T17:12:50.766Z,4.5
2022-11-07T17:17:50.748Z,7.5
2022-11-07T17:22:50.685Z,8
2022-11-07T17:27:50.835Z,9
2022-11-07T17:32:50.660Z,7.5
2022-11-07T17:37:50.634Z,8.5
2022-11-07T17:42:50.634Z,8
2022-11-07T17:47:50.633Z,8
2022-11-07T17:52:50.678Z,8
2022-11-07T17:57:50.603Z,6.5
2022-11-07T18:02:50.536Z,8.5
2022-11-07T18:07:50.555Z,9
2022-11-07T18:12:50.542Z,9.5
2022-11-07T18:17:50.491Z,11.5
2022-11-07T18:22:50.471Z,12.5
2022-11-07T18:27:50.503Z,13.5
2022-11-07T18:32:50.425Z,14
2022-11-07T18:37:50.385Z,14.5
2022-11-07T18:42:50.405Z,14.5
2022-11-07T18:47:50.350Z,14.5
2022-11-07T18:52:50.397Z,14.5
2022-11-07T18:57:50.308Z,15
2022-11-07T19:02:50.362Z,15.5
2022-11-07T19:07:50.276Z,16
2022-11-07T19:12:50.253Z,15.5
2022-11-07T19:17:50.255Z,15.5
2022-11-07T19:22:50.202Z,15.5
2022-11-07T19:27:50.305Z,16
2022-11-07T19:32:50.165Z,16
2022-11-07T19:37:50.143Z,16.5
2022-11-07T19:42:50.129Z,16.5
2022-11-07T19:47:50.115Z,16.5
2022-11-07T19:52:50.091Z,17
2022-11-07T19:57:50.067Z,17
2022-11-07T20:02:50.051Z,17.5
2022-11-07T20:07:50.029Z,18
2022-11-07T20:12:50.004Z,17.5
2022-11-07T20:17:49.983Z,18.5
2022-11-07T20:22:49.971Z,19
2022-11-07T20:27:50.017Z,19
2022-11-07T20:32:49.998Z,19.5
2022-11-07T20:37:49.952Z,19.5
2022-11-07T20:42:49.895Z,19.5
2022-11-07T20:47:50.110Z,19.5
2022-11-07T20:52:50.011Z,19.5
2022-11-07T20:57:50.025Z,19.5
2022-11-07T21:02:50.028Z,20
2022-11-07T21:07:50.012Z,20
2022-11-07T21:12:49.970Z,20.5
2022-11-07T21:17:49.753Z,20.5
2022-11-07T21:22:49.739Z,20.5
2022-11-07T21:27:49.711Z,20.5
2022-11-07T21:32:49.700Z,20.5
2022-11-07T21:37:49.673Z,20
2022-11-07T21:42:49.659Z,20
2022-11-07T21:47:49.684Z,20.5
2022-11-07T21:52:49.615Z,20.5
2022-11-07T21:57:49.592Z,20.5
2022-11-07T22:02:49.583Z,20.5
2022-11-07T22:07:49.565Z,20.5
2022-11-07T22:12:49.538Z,20.5
2022-11-07T22:17:49.536Z,20.5
2022-11-07T22:22:49.492Z,20
2022-11-07T22:27:49.482Z,20
2022-11-07T22:32:49.484Z,19.5
2022-11-07T22:37:49.433Z,19.5
2022-11-07T22:42:49.419Z,19
2022-11-07T22:47:49.418Z,19
2022-11-07T22:52:49.375Z,19
2022-11-07T22:57:49.359Z,19
2022-11-07T23:02:49.342Z,19
2022-11-07T23:07:49.316Z,19
2022-11-07T23:12:49.304Z,19.5
2022-11-07T23:17:49.374Z,19
2022-11-07T23:22:49.267Z,19.5
2022-11-07T23:27:49.245Z,19.5
2022-11-07T23:32:49.291Z,19.5
2022-11-07T23:37:49.210Z,19.5
2022-11-07T23:42:49.179Z,19.5
2022-11-07T23:47:49.160Z,19.5
2022-11-07T23:52:49.155Z,19.5
2022-11-07T23:57:49.130Z,19.5
